Latest Coastal Weather Observations for Cape Moreton

IDQ60701

Issued at 9:51 am EST Wednesday 5 August 2015 (issued every 10 minutes, with the page automatically refreshed every 10 minutes)

About coastal observations | Map of coastal stations | Coastal observations for QLD | Marine services | Other Formats
Station Details ID: 040043 Name: CAPE MORETON LIGHTHOUSE Lat: -27.03 Lon: 153.47 Height: 99.9 m
Data from the previous 72 hours. | See also: Recent months at Cape Moreton
Date/Time
EST
Temp

°C
Wind Pressure Rain
since 9am
mm
Weather Cloud Vis
km
Sea
Height
m
Swell
Dir
 
Speed
knots
Gust
knots
hPa Trend Height
m
Period
s
Dir
05/09:30am 12.1 SW 12 18 1016.1 - 0.0 - - - - - - -
05/09:00am 11.5 WSW 12 19 1016.2 - 0.0 - - - - - - -
05/08:30am 10.7 WSW 13 20 1016.2 - 0.0 - - - - - - -
05/08:00am 10.1 WSW 14 18 1016.0 - 0.0 - - - - - - -
05/07:30am 9.5 WSW 17 24 1015.8 - 0.0 - - - - - - -
05/07:00am 9.0 WSW 19 24 1015.5 - 0.0 - - - - - - -
05/06:30am 8.8 SW 13 18 1015.5 - 0.0 - - - - - - -
05/06:00am 8.7 SW 9 15 1015.3 - 0.0 - - - - - - -
05/05:30am 8.9 SW 8 13 1015.2 - 0.0 - - - - - - -
05/05:00am 9.0 SW 12 17 1015.1 - 0.0 - - - - - - -
05/04:30am 9.5 WSW 19 25 1014.6 - 0.0 - - - - - - -
05/04:00am 9.5 WSW 17 21 1015.1 - 0.0 - - - - - - -
05/03:30am 9.9 WSW 19 25 1015.1 - 0.0 - - - - - - -
05/03:00am 10.3 WSW 19 24 1015.3 - 0.0 - - - - - - -
05/02:30am 10.7 WSW 21 27 1015.3 - 0.0 - - - - - - -
05/02:00am 11.1 WSW 20 27 1015.7 - 0.0 - - - - - - -
05/01:30am 11.6 WSW 18 28 1016.1 - 0.0 - - - - - - -
05/01:28am 11.6 WSW 18 28 1016.2 - 0.0 - - - - - - -
05/01:00am 11.7 SW 10 16 1016.4 - 0.0 - - - - - - -
05/12:30am 12.1 SW 8 15 1016.6 - 0.0 - - - - - - -
05/12:00am 12.4 SW 12 18 1016.7 - 0.0 - - - - - - -
 
Date/Time
EST
Temp

°C
Wind Pressure Rain
since 9am
mm
Weather Cloud Vis
km
Sea
Height
m
Swell
Dir
 
Speed
knots
Gust
knots
hPa Trend Height
m
Period
s
Dir
04/11:30pm 12.7 SW 13 19 1016.5 - 0.0 - - - - - - -
04/11:00pm 13.8 SW 14 21 1016.6 - 0.0 - - - - - - -
04/10:30pm 13.9 SW 16 22 1016.8 - 0.0 - - - - - - -
04/10:00pm 14.4 SW 13 17 1016.5 - 0.0 - - - - - - -
04/09:37pm 15.1 SW 11 25 1016.6 - 0.0 - - - - - - -
04/09:36pm 15.2 SW 10 21 1016.6 - 0.0 - - - - - - -
04/09:30pm 16.5 S 4 8 1016.6 - 0.0 - - - - - - -
04/09:00pm 16.6 SSE 6 9 1016.4 - 0.0 - - - - - - -
04/08:30pm 17.2 SSE 9 13 1016.6 - 0.0 - - - - - - -
04/08:00pm 17.4 SE 10 13 1016.7 - 0.0 - - - - - - -
04/07:30pm 17.2 SE 11 13 1016.7 - 0.0 - - - - - - -
04/07:00pm 17.2 SE 13 15 1016.6 - 0.0 - - - - - - -
04/06:30pm 17.3 SE 14 18 1016.6 - 0.0 - - - - - - -
04/06:00pm 17.2 SSE 16 20 1016.4 - 0.0 - - - - - - -
04/05:30pm 17.1 SSE 18 22 1016.3 - 0.0 - - - - - - -
04/05:00pm 17.2 SSE 18 24 1016.4 - 0.0 - - - - - - -
04/04:30pm 17.0 SSE 18 25 1016.2 - 0.0 - - - - - - -
04/04:00pm 17.4 SSE 21 28 1016.0 - 0.0 - - - - - - -
04/03:30pm 17.5 SSE 20 29 1016.0 - 0.0 - - - - - - -
04/03:00pm 17.7 SSE 19 26 1016.0 - 0.0 - - - - - - -
04/02:30pm 17.9 SSE 20 27 1016.3 - 0.0 - - - - - - -
04/02:00pm 17.9 SSE 19 27 1016.7 - 0.0 - - - - - - -
04/01:30pm 18.2 SSE 19 25 1016.6 - 0.0 - - - - - - -
04/01:00pm 18.3 SSE 19 26 1016.7 - 0.0 - - - - - - -
04/12:30pm 18.9 S 20 27 1017.0 - 0.0 - - - - - - -
04/12:14pm 18.8 SSE 18 28 1017.4 - 0.0 - - - - - - -
04/12:00pm 18.7 SSE 20 26 1017.5 - 0.0 - - - - - - -
04/11:30am 18.3 SSE 19 26 1017.9 - 0.0 - - - - - - -
04/11:00am 17.8 S 16 21 1018.5 - 0.0 - - - - - - -
04/10:30am 17.7 S 16 22 1018.5 - 0.0 - - - - - - -
04/10:00am 17.2 SSE 17 23 1018.5 - 0.0 - - - - - - -
04/09:30am 17.1 S 16 21 1018.7 - 0.0 - - - - - - -
04/09:00am 17.2 S 15 21 1018.5 - 0.0 - - - - - - -
04/08:30am 16.4 S 14 17 1018.4 - 0.0 - - - - - - -
04/08:00am 16.3 S 12 16 1018.4 - 0.0 - - - - - - -
04/07:30am 15.8 SSW 12 18 1018.0 - 0.0 - - - - - - -
04/07:00am 15.5 SSW 11 15 1017.7 - 0.0 - - - - - - -
04/06:30am 15.3 SW 13 16 1017.6 - 0.0 - - - - - - -
04/06:00am 15.2 SW 12 15 1017.2 - 0.0 - - - - - - -
04/05:30am 15.4 SW 13 16 1017.0 - 0.0 - - - - - - -
04/05:00am 15.4 WSW 12 15 1016.8 - 0.0 - - - - - - -
04/04:30am 15.6 SW 12 15 1016.3 - 0.0 - - - - - - -
04/04:00am 16.0 SSW 12 14 1016.0 - 0.0 - - - - - - -
04/03:30am 15.9 SW 10 12 1016.1 - 0.0 - - - - - - -
04/03:00am 16.2 WSW 10 13 1016.3 - 0.0 - - - - - - -
04/02:30am 16.5 SW 9 15 1016.1 - 0.0 - - - - - - -
04/02:00am 16.7 SW 11 15 1016.3 - 0.0 - - - - - - -
04/01:30am 16.8 WSW 12 15 1016.1 - 0.0 - - - - - - -
04/01:00am 16.9 WSW 12 17 1016.3 - 0.0 - - - - - - -
04/12:30am 17.6 WSW 14 18 1016.1 - 0.0 - - - - - - -
04/12:00am 18.0 SW 14 18 1016.0 - 0.0 - - - - - - -
 
Date/Time
EST
Temp

°C
Wind Pressure Rain
since 9am
mm
Weather Cloud Vis
km
Sea
Height
m
Swell
Dir
 
Speed
knots
Gust
knots
hPa Trend Height
m
Period
s
Dir
03/11:30pm 18.1 SW 13 18 1016.3 - 0.0 - - - - - - -
03/11:00pm 18.5 SW 11 15 1016.3 - 0.0 - - - - - - -
03/10:30pm 18.6 WSW 11 15 1016.4 - 0.0 - - - - - - -
03/10:00pm 19.0 W 12 15 1016.2 - 0.0 - - - - - - -
03/09:30pm 19.7 WNW 13 17 1016.2 - 0.0 - - - - - - -
03/09:00pm 19.6 NW 13 19 1016.2 - 0.0 - - - - - - -
03/08:30pm 19.9 NW 14 19 1016.3 - 0.0 - - - - - - -
03/08:00pm 20.1 NNW 14 21 1016.5 - 0.0 - - - - - - -
03/07:30pm 20.1 NNW 15 20 1016.0 - 0.0 - - - - - - -
03/07:00pm 20.2 N 16 20 1015.8 - 0.0 - - - - - - -
03/06:30pm 20.2 N 17 21 1015.7 - 0.0 - - - - - - -
03/06:00pm 20.0 N 16 20 1015.3 - 0.0 - - - - - - -
03/05:30pm 20.0 N 17 22 1015.0 - 0.0 - - - - - - -
03/05:00pm 20.2 N 18 22 1014.9 - 0.0 - - - - - - -
03/04:30pm 20.5 N 17 21 1014.8 - 0.0 - - - - - - -
03/04:00pm 20.7 N 18 22 1014.7 - 0.0 - - - - - - -
03/03:30pm 20.8 N 17 21 1014.8 - 0.0 - - - - - - -
03/03:00pm 20.9 N 15 20 1015.0 - 0.0 - - - - - - -
03/02:30pm 21.0 NNW 15 19 1015.1 - 0.0 - - - - - - -
03/02:00pm 21.3 NNW 14 21 1015.3 - 0.0 - - - - - - -
03/01:30pm 21.3 NNW 13 17 1015.7 - 0.0 - - - - - - -
03/01:00pm 21.2 NNW 13 17 1016.2 - 0.0 - - - - - - -
03/12:30pm 20.9 NNW 12 17 1016.7 - 0.0 - - - - - - -
03/12:00pm 20.7 NNW 13 17 1017.2 - 0.0 - - - - - - -
03/11:30am 20.4 NNW 11 16 1018.0 - 0.0 - - - - - - -
03/11:00am 20.5 NNW 12 16 1018.5 - 0.0 - - - - - - -
03/10:30am 19.4 NW 13 17 1019.4 - 0.0 - - - - - - -
03/10:00am 19.1 NW 14 18 1019.5 - 0.0 - - - - - - -
03/09:30am 19.2 NW 13 17 1019.6 - 0.0 - - - - - - -
03/09:00am 19.1 NNW 16 20 1019.3 - 0.0 - - - - - - -
03/08:30am 19.0 NNW 16 21 1019.2 - 0.0 - - - - - - -
03/08:00am 18.7 NNW 17 21 1019.1 - 0.0 - - - - - - -
03/07:30am 18.4 NNW 16 22 1018.7 - 0.0 - - - - - - -
03/07:00am 18.1 NW 18 22 1018.7 - 0.0 - - - - - - -
03/06:30am 17.9 NNW 14 19 1018.5 - 0.0 - - - - - - -
03/06:00am 17.9 NNW 16 21 1018.3 - 0.0 - - - - - - -
03/05:30am 17.9 NW 17 22 1018.2 - 0.0 - - - - - - -
03/05:00am 18.2 NW 18 21 1018.0 - 0.0 - - - - - - -
03/04:30am 18.3 NW 17 22 1018.0 - 0.0 - - - - - - -
03/04:00am 18.4 NW 16 21 1017.9 - 0.0 - - - - - - -
03/03:30am 18.4 NNW 14 19 1018.1 - 0.0 - - - - - - -
03/03:00am 18.3 NNW 12 16 1018.2 - 0.0 - - - - - - -
03/02:30am 18.3 NNW 12 17 1018.5 - 0.0 - - - - - - -
03/02:00am 18.3 NW 12 16 1018.8 - 0.0 - - - - - - -
03/01:30am 18.5 NW 13 17 1019.2 - 0.0 - - - - - - -
03/01:00am 18.5 NNW 12 16 1019.4 - 0.0 - - - - - - -
03/12:30am 18.6 NNW 12 17 1019.8 - 0.0 - - - - - - -
03/12:00am 18.9 NW 15 19 1019.9 - 0.0 - - - - - - -
 
Date/Time
EST
Temp

°C
Wind Pressure Rain
since 9am
mm
Weather Cloud Vis
km
Sea
Height
m
Swell
Dir
 
Speed
knots
Gust
knots
hPa Trend Height
m
Period
s
Dir
02/11:30pm 19.2 NNW 15 20 1019.8 - 0.0 - - - - - - -
02/11:00pm 19.6 NNW 15 22 1020.1 - 0.0 - - - - - - -
02/10:30pm 19.7 N 21 25 1020.0 - 0.0 - - - - - - -
02/10:00pm 19.9 N 22 27 1020.0 - 0.0 - - - - - - -
02/09:30pm 19.8 N 21 26 1019.8 - 0.0 - - - - - - -
02/09:00pm 19.6 N 18 24 1019.9 - 0.0 - - - - - - -
02/08:30pm 19.7 N 19 25 1020.0 - 0.0 - - - - - - -
02/08:00pm 19.7 N 16 21 1020.1 - 0.0 - - - - - - -
02/07:30pm 19.6 N 16 22 1020.0 - 0.0 - - - - - - -
02/07:00pm 19.7 N 17 22 1019.9 - 0.0 - - - - - - -
02/06:30pm 19.6 N 16 21 1019.8 - 0.0 - - - - - - -
02/06:00pm 19.6 N 14 20 1019.7 - 0.0 - - - - - - -
02/05:30pm 19.7 N 14 20 1019.4 - 0.0 - - - - - - -
02/05:00pm 19.9 N 14 20 1019.4 - 0.0 - - - - - - -
02/04:30pm 20.3 N 14 19 1019.2 - 0.0 - - - - - - -
02/04:00pm 20.5 N 17 19 1019.3 - 0.0 - - - - - - -
02/03:30pm 20.8 N 16 20 1019.4 - 0.0 - - - - - - -
02/03:00pm 21.0 N 14 17 1019.6 - 0.0 - - - - - - -
02/02:30pm 21.0 N 13 17 1020.0 - 0.0 - - - - - - -
02/02:00pm 21.0 NNW 13 16 1020.2 - 0.0 - - - - - - -
02/01:30pm 21.4 NNW 11 14 1020.5 - 0.0 - - - - - - -
02/01:00pm 20.9 NW 11 14 1020.8 - 0.0 - - - - - - -
02/12:30pm 20.5 NW 12 14 1021.3 - 0.0 - - - - - - -
02/12:00pm 20.5 NW 8 13 1021.8 - 0.0 - - - - - - -
02/11:30am 20.2 WNW 11 13 1022.4 - 0.0 - - - - - - -
02/11:00am 20.3 WNW 8 13 1022.8 - 0.0 - - - - - - -
02/10:30am 19.7 NW 10 14 1023.1 - 0.0 - - - - - - -
02/10:00am 19.2 NW 10 13 1023.1 - 0.0 - - - - - - -

Other Formats:

Comma delimited format used in spreadsheet applications
http://www.bom.gov.au/fwo/IDQ60701/IDQ60701.94594.axf

JavaScript Object Notation format (JSON) in row-major order
http://www.bom.gov.au/fwo/IDQ60701/IDQ60701.94594.json